Private Wetterstation Sandau
Wetterdaten: Sonntag, 02.09.2012
Datum Zeit Temp. A. Feuchte A. Luftdruck Regen Wind Richtung Richtung Taupunkt Windchill
02.09.2012 00:01 11,6 C 81 % 1026,7 hPa 0,0 l/m 0,0 km/h (0 Bft) S-SO 157 8,5 C 11,6 C
02.09.2012 00:06 11,5 C 81 % 1026,8 hPa 0,0 l/m 0,0 km/h (0 Bft) S-SO 157 8,4 C 11,5 C
02.09.2012 00:11 11,4 C 81 % 1026,7 hPa 0,0 l/m 0,0 km/h (0 Bft) S-SO 157 8,3 C 11,4 C
02.09.2012 00:16 11,3 C 81 % 1026,8 hPa 0,0 l/m 1,8 km/h (1 Bft) S-SO 157 8,2 C 11,3 C
02.09.2012 00:21 11,1 C 81 % 1026,8 hPa 0,0 l/m 0,0 km/h (0 Bft) S-SO 157 8,0 C 11,1 C
02.09.2012 00:26 11,0 C 82 % 1026,8 hPa 0,0 l/m 0,0 km/h (0 Bft) S-SO 157 8,0 C 11,0 C
02.09.2012 00:31 10,9 C 82 % 1026,9 hPa 0,0 l/m 0,0 km/h (0 Bft) S-SO 157 7,9 C 10,9 C
02.09.2012 00:36 10,9 C 82 % 1026,8 hPa 0,0 l/m 0,0 km/h (0 Bft) S-SO 157 7,9 C 10,9 C
02.09.2012 00:41 10,8 C 82 % 1026,9 hPa 0,0 l/m 0,0 km/h (0 Bft) S-SO 157 7,9 C 10,8 C
02.09.2012 00:46 10,7 C 82 % 1027,0 hPa 0,0 l/m 0,0 km/h (0 Bft) S-SO 157 7,8 C 10,7 C
02.09.2012 00:51 10,6 C 82 % 1027,2 hPa 0,0 l/m 0,0 km/h (0 Bft) S-SO 157 7,7 C 10,6 C
02.09.2012 00:56 10,5 C 82 % 1027,0 hPa 0,0 l/m 0,0 km/h (0 Bft) S-SO 157 7,6 C 10,5 C
02.09.2012 01:01 10,4 C 83 % 1027,0 hPa 0,0 l/m 0,0 km/h (0 Bft) S-SO 157 7,6 C 10,4 C
02.09.2012 01:06 10,4 C 83 % 1027,0 hPa 0,0 l/m 0,0 km/h (0 Bft) S-SO 157 7,6 C 10,4 C
02.09.2012 01:11 10,4 C 84 % 1027,0 hPa 0,0 l/m 0,0 km/h (0 Bft) S-SO 157 7,8 C 10,4 C
02.09.2012 01:16 10,4 C 84 % 1027,0 hPa 0,0 l/m 0,0 km/h (0 Bft) S-SO 157 7,8 C 10,4 C
02.09.2012 01:21 10,3 C 84 % 1027,0 hPa 0,0 l/m 0,0 km/h (0 Bft) S-SO 157 7,7 C 10,3 C
02.09.2012 01:26 10,2 C 84 % 1027,2 hPa 0,0 l/m 0,0 km/h (0 Bft) S-SO 157 7,6 C 10,2 C
02.09.2012 01:31 10,1 C 84 % 1027,0 hPa 0,0 l/m 0,0 km/h (0 Bft) S-SO 157 7,5 C 10,1 C
02.09.2012 01:36 10,1 C 84 % 1027,1 hPa 0,0 l/m 1,4 km/h (1 Bft) S-SO 157 7,5 C 10,1 C
02.09.2012 01:41 10,1 C 85 % 1027,1 hPa 0,0 l/m 1,4 km/h (1 Bft) SO 135 7,7 C 10,1 C
02.09.2012 01:46 10,2 C 85 % 1026,9 hPa 0,0 l/m 1,4 km/h (1 Bft) S-SO 157 7,8 C 10,2 C
02.09.2012 01:51 10,3 C 85 % 1027,0 hPa 0,0 l/m 0,0 km/h (0 Bft) S-SO 157 7,9 C 10,3 C
02.09.2012 01:56 10,2 C 85 % 1026,9 hPa 0,0 l/m 1,8 km/h (1 Bft) S 180 7,8 C 10,2 C
02.09.2012 02:01 10,2 C 85 % 1027,0 hPa 0,0 l/m 1,4 km/h (1 Bft) S 180 7,8 C 10,2 C
02.09.2012 02:06 10,1 C 85 % 1027,0 hPa 0,0 l/m 3,2 km/h (1 Bft) S-SW 202 7,7 C 10,1 C
02.09.2012 02:11 10,1 C 85 % 1027,1 hPa 0,0 l/m 2,9 km/h (1 Bft) S 180 7,7 C 10,1 C
02.09.2012 02:16 10,1 C 85 % 1027,2 hPa 0,0 l/m 0,0 km/h (0 Bft) S 180 7,7 C 10,1 C
02.09.2012 02:21 10,0 C 86 % 1026,9 hPa 0,0 l/m 0,0 km/h (0 Bft) S 180 7,8 C 10,0 C
02.09.2012 02:26 9,9 C 86 % 1026,9 hPa 0,0 l/m 0,0 km/h (0 Bft) S 180 7,7 C 9,9 C
02.09.2012 02:31 10,0 C 86 % 1026,9 hPa 0,0 l/m 0,0 km/h (0 Bft) S 180 7,8 C 10,0 C
02.09.2012 02:36 10,0 C 86 % 1026,9 hPa 0,0 l/m 0,0 km/h (0 Bft) S 180 7,8 C 10,0 C
02.09.2012 02:41 9,9 C 86 % 1027,0 hPa 0,0 l/m 0,0 km/h (0 Bft) S 180 7,7 C 9,9 C
02.09.2012 02:46 9,9 C 86 % 1027,0 hPa 0,0 l/m 0,0 km/h (0 Bft) S 180 7,7 C 9,9 C
02.09.2012 02:51 9,7 C 86 % 1027,1 hPa 0,0 l/m 0,0 km/h (0 Bft) S 180 7,5 C 9,7 C
02.09.2012 02:56 9,6 C 86 % 1027,0 hPa 0,0 l/m 0,0 km/h (0 Bft) S 180 7,4 C 9,6 C
02.09.2012 03:01 9,6 C 86 % 1027,1 hPa 0,0 l/m 0,0 km/h (0 Bft) S 180 7,4 C 9,6 C
02.09.2012 03:06 9,5 C 86 % 1027,0 hPa 0,0 l/m 1,1 km/h (1 Bft) S 180 7,3 C 9,5 C
02.09.2012 03:11 9,5 C 86 % 1027,0 hPa 0,0 l/m 0,0 km/h (0 Bft) S 180 7,3 C 9,5 C
02.09.2012 03:16 9,5 C 86 % 1026,9 hPa 0,0 l/m 2,9 km/h (1 Bft) S 180 7,3 C 9,5 C
02.09.2012 03:21 9,5 C 86 % 1026,9 hPa 0,0 l/m 0,0 km/h (0 Bft) S 180 7,3 C 9,5 C
02.09.2012 03:26 9,6 C 87 % 1026,9 hPa 0,0 l/m 0,0 km/h (0 Bft) SO 135 7,5 C 9,6 C
02.09.2012 03:31 9,6 C 87 % 1026,8 hPa 0,0 l/m 0,0 km/h (0 Bft) S-SO 157 7,5 C 9,6 C
02.09.2012 03:36 9,6 C 87 % 1026,7 hPa 0,0 l/m 3,6 km/h (1 Bft) SO 135 7,5 C 9,6 C
02.09.2012 03:41 9,6 C 87 % 1026,6 hPa 0,0 l/m 3,2 km/h (1 Bft) S-SO 157 7,5 C 9,6 C
02.09.2012 03:46 9,6 C 87 % 1026,5 hPa 0,0 l/m 1,1 km/h (1 Bft) S-SO 157 7,5 C 9,6 C
02.09.2012 03:51 9,6 C 87 % 1026,5 hPa 0,0 l/m 0,0 km/h (0 Bft) S-SO 157 7,5 C 9,6 C
02.09.2012 03:56 9,6 C 87 % 1026,6 hPa 0,0 l/m 0,0 km/h (0 Bft) S-SO 157 7,5 C 9,6 C
02.09.2012 04:01 9,5 C 87 % 1026,5 hPa 0,0 l/m 0,0 km/h (0 Bft) S-SO 157 7,4 C 9,5 C
02.09.2012 04:06 9,4 C 87 % 1026,5 hPa 0,0 l/m 0,0 km/h (0 Bft) SO 135 7,3 C 9,4 C
02.09.2012 04:11 9,4 C 87 % 1026,4 hPa 0,0 l/m 0,0 km/h (0 Bft) SO 135 7,3 C 9,4 C
02.09.2012 04:16 9,3 C 87 % 1026,3 hPa 0,0 l/m 0,0 km/h (0 Bft) SO 135 7,2 C 9,3 C
02.09.2012 04:21 9,3 C 87 % 1026,3 hPa 0,0 l/m 0,0 km/h (0 Bft) SO 135 7,2 C 9,3 C
02.09.2012 04:26 9,3 C 87 % 1026,3 hPa 0,0 l/m 0,0 km/h (0 Bft) SO 135 7,2 C 9,3 C
02.09.2012 04:31 9,3 C 87 % 1026,3 hPa 0,0 l/m 0,0 km/h (0 Bft) S-SO 157 7,2 C 9,3 C
02.09.2012 04:36 9,3 C 87 % 1026,4 hPa 0,0 l/m 0,0 km/h (0 Bft) SO 135 7,2 C 9,3 C
02.09.2012 04:41 9,2 C 87 % 1026,3 hPa 0,0 l/m 0,0 km/h (0 Bft) SO 135 7,2 C 9,2 C
02.09.2012 04:46 9,1 C 87 % 1026,5 hPa 0,0 l/m 0,0 km/h (0 Bft) SO 135 7,1 C 9,1 C
02.09.2012 04:51 9,1 C 87 % 1026,5 hPa 0,0 l/m 0,0 km/h (0 Bft) SO 135 7,1 C 9,1 C
02.09.2012 04:56 9,1 C 87 % 1026,5 hPa 0,0 l/m 0,0 km/h (0 Bft) SO 135 7,1 C 9,1 C
02.09.2012 05:01 9,0 C 87 % 1026,5 hPa 0,0 l/m 0,0 km/h (0 Bft) SO 135 7,0 C 9,0 C
02.09.2012 05:06 9,0 C 87 % 1026,5 hPa 0,0 l/m 0,0 km/h (0 Bft) SO 135 7,0 C 9,0 C
02.09.2012 05:11 8,9 C 87 % 1026,5 hPa 0,0 l/m 1,4 km/h (1 Bft) SO 135 6,9 C 8,9 C
02.09.2012 05:16 8,9 C 87 % 1026,7 hPa 0,0 l/m 0,0 km/h (0 Bft) SO 135 6,9 C 8,9 C
02.09.2012 05:21 8,9 C 87 % 1026,7 hPa 0,0 l/m 0,0 km/h (0 Bft) SO 135 6,9 C 8,9 C
02.09.2012 05:26 8,9 C 88 % 1026,7 hPa 0,0 l/m 0,0 km/h (0 Bft) SO 135 7,0 C 8,9 C
02.09.2012 05:31 8,9 C 88 % 1026,7 hPa 0,0 l/m 0,0 km/h (0 Bft) SO 135 7,0 C 8,9 C
02.09.2012 05:36 8,9 C 88 % 1026,6 hPa 0,0 l/m 0,0 km/h (0 Bft) SO 135 7,0 C 8,9 C
02.09.2012 05:41 8,9 C 88 % 1026,7 hPa 0,0 l/m 0,0 km/h (0 Bft) SO 135 7,0 C 8,9 C
02.09.2012 05:46 8,9 C 88 % 1026,6 hPa 0,0 l/m 0,0 km/h (0 Bft) SO 135 7,0 C 8,9 C
02.09.2012 05:51 8,8 C 88 % 1026,6 hPa 0,0 l/m 0,0 km/h (0 Bft) SO 135 6,9 C 8,8 C
02.09.2012 05:56 8,8 C 88 % 1026,7 hPa 0,0 l/m 2,9 km/h (1 Bft) SO 135 6,9 C 8,8 C
02.09.2012 06:01 8,8 C 88 % 1026,8 hPa 0,0 l/m 3,2 km/h (1 Bft) SO 135 6,9 C 8,8 C
02.09.2012 06:06 8,8 C 88 % 1026,7 hPa 0,0 l/m 0,0 km/h (0 Bft) SO 135 6,9 C 8,8 C
02.09.2012 06:11 8,8 C 88 % 1026,7 hPa 0,0 l/m 0,0 km/h (0 Bft) SO 135 6,9 C 8,8 C
02.09.2012 06:16 8,7 C 88 % 1026,7 hPa 0,0 l/m 0,0 km/h (0 Bft) SO 135 6,8 C 8,7 C
02.09.2012 06:21 8,6 C 88 % 1026,7 hPa 0,0 l/m 0,0 km/h (0 Bft) SO 135 6,7 C 8,6 C
02.09.2012 06:26 8,6 C 88 % 1026,7 hPa 0,0 l/m 3,2 km/h (1 Bft) SO 135 6,7 C 8,6 C
02.09.2012 06:31 8,6 C 88 % 1026,7 hPa 0,0 l/m 0,0 km/h (0 Bft) S-SO 157 6,7 C 8,6 C
02.09.2012 06:36 8,6 C 88 % 1026,5 hPa 0,0 l/m 0,0 km/h (0 Bft) S-SO 157 6,7 C 8,6 C
02.09.2012 06:41 8,5 C 88 % 1026,7 hPa 0,0 l/m 0,0 km/h (0 Bft) S-SO 157 6,6 C 8,5 C
02.09.2012 06:46 8,4 C 88 % 1026,5 hPa 0,0 l/m 0,0 km/h (0 Bft) S-SO 157 6,5 C 8,4 C
02.09.2012 06:51 8,4 C 88 % 1026,5 hPa 0,0 l/m 2,5 km/h (1 Bft) SO 135 6,5 C 8,4 C
02.09.2012 06:56 8,5 C 88 % 1026,3 hPa 0,0 l/m 3,2 km/h (1 Bft) SO 135 6,6 C 8,5 C
02.09.2012 07:01 8,5 C 88 % 1026,4 hPa 0,0 l/m 1,4 km/h (1 Bft) SO 135 6,6 C 8,5 C
02.09.2012 07:06 8,7 C 88 % 1026,3 hPa 0,0 l/m 1,4 km/h (1 Bft) S-SO 157 6,8 C 8,7 C
02.09.2012 07:11 8,8 C 88 % 1026,4 hPa 0,0 l/m 0,0 km/h (0 Bft) SO 135 6,9 C 8,8 C
02.09.2012 07:16 8,8 C 88 % 1026,4 hPa 0,0 l/m 1,4 km/h (1 Bft) S-SO 157 6,9 C 8,8 C
02.09.2012 07:21 8,9 C 88 % 1026,6 hPa 0,0 l/m 0,0 km/h (0 Bft) SO 135 7,0 C 8,9 C
02.09.2012 07:26 8,9 C 88 % 1026,6 hPa 0,0 l/m 1,4 km/h (1 Bft) SO 135 7,0 C 8,9 C
02.09.2012 07:31 9,0 C 88 % 1026,7 hPa 0,0 l/m 0,0 km/h (0 Bft) SO 135 7,1 C 9,0 C
02.09.2012 07:36 9,1 C 87 % 1026,7 hPa 0,0 l/m 0,0 km/h (0 Bft) SO 135 7,1 C 9,1 C
02.09.2012 07:41 9,2 C 87 % 1026,6 hPa 0,0 l/m 0,0 km/h (0 Bft) SO 135 7,2 C 9,2 C
02.09.2012 07:46 9,3 C 88 % 1026,7 hPa 0,0 l/m 1,4 km/h (1 Bft) S-SO 157 7,4 C 9,3 C
02.09.2012 07:51 9,4 C 87 % 1026,8 hPa 0,0 l/m 1,8 km/h (1 Bft) SO 135 7,3 C 9,4 C
02.09.2012 07:56 9,5 C 87 % 1026,8 hPa 0,0 l/m 0,0 km/h (0 Bft) SO 135 7,4 C 9,5 C
02.09.2012 08:01 9,6 C 87 % 1026,9 hPa 0,0 l/m 1,4 km/h (1 Bft) S-SO 157 7,5 C 9,6 C
02.09.2012 08:06 9,8 C 87 % 1026,9 hPa 0,0 l/m 0,0 km/h (0 Bft) S-SO 157 7,7 C 9,8 C
02.09.2012 08:11 10,1 C 88 % 1026,9 hPa 0,0 l/m 0,0 km/h (0 Bft) S-SO 157 8,2 C 10,1 C
02.09.2012 08:16 10,4 C 87 % 1026,8 hPa 0,0 l/m 0,0 km/h (0 Bft) S-SO 157 8,3 C 10,4 C
02.09.2012 08:21 10,8 C 87 % 1026,9 hPa 0,0 l/m 4,0 km/h (1 Bft) S-SW 202 8,7 C 10,8 C
02.09.2012 08:26 11,1 C 86 % 1026,9 hPa 0,0 l/m 2,9 km/h (1 Bft) S-SO 157 8,8 C 11,1 C
02.09.2012 08:31 11,3 C 86 % 1026,9 hPa 0,0 l/m 0,0 km/h (0 Bft) S-SO 157 9,0 C 11,3 C
02.09.2012 08:36 11,6 C 86 % 1026,8 hPa 0,0 l/m 0,0 km/h (0 Bft) S-SO 157 9,3 C 11,6 C
02.09.2012 08:41 11,8 C 86 % 1026,9 hPa 0,0 l/m 2,5 km/h (1 Bft) S-SO 157 9,5 C 11,8 C
02.09.2012 08:46 12,0 C 85 % 1026,9 hPa 0,0 l/m 1,4 km/h (1 Bft) S-SW 202 9,6 C 12,0 C
02.09.2012 08:51 12,2 C 85 % 1026,9 hPa 0,0 l/m 2,2 km/h (1 Bft) S-SO 157 9,8 C 12,2 C
02.09.2012 08:56 12,3 C 85 % 1026,9 hPa 0,0 l/m 4,7 km/h (1 Bft) S-SO 157 9,9 C 12,3 C
02.09.2012 09:01 12,5 C 84 % 1026,9 hPa 0,0 l/m 2,2 km/h (1 Bft) SO 135 9,9 C 12,5 C
02.09.2012 09:06 12,8 C 84 % 1026,9 hPa 0,0 l/m 4,0 km/h (1 Bft) S-SO 157 10,2 C 12,8 C
02.09.2012 09:11 13,0 C 85 % 1026,9 hPa 0,0 l/m 3,6 km/h (1 Bft) S-SO 157 10,5 C 13,0 C
02.09.2012 09:16 13,2 C 84 % 1026,8 hPa 0,0 l/m 0,0 km/h (0 Bft) S 180 10,6 C 13,2 C
02.09.2012 09:21 13,3 C 83 % 1026,9 hPa 0,0 l/m 4,0 km/h (1 Bft) S-SW 202 10,5 C 13,3 C
02.09.2012 09:26 13,5 C 83 % 1027,0 hPa 0,0 l/m 4,0 km/h (1 Bft) S-SW 202 10,7 C 13,5 C
02.09.2012 09:31 13,6 C 83 % 1026,9 hPa 0,0 l/m 2,5 km/h (1 Bft) S-SO 157 10,8 C 13,6 C
02.09.2012 09:36 13,8 C 82 % 1026,8 hPa 0,0 l/m 4,3 km/h (1 Bft) SO 135 10,8 C 13,8 C
02.09.2012 09:41 13,9 C 82 % 1026,9 hPa 0,0 l/m 6,1 km/h (2 Bft) S-SO 157 10,9 C 13,9 C
02.09.2012 09:46 14,1 C 82 % 1026,8 hPa 0,0 l/m 3,6 km/h (1 Bft) SW 225 11,1 C 14,1 C
02.09.2012 09:51 14,2 C 82 % 1026,8 hPa 0,0 l/m 8,3 km/h (2 Bft) S-SW 202 11,2 C 14,2 C
02.09.2012 09:56 14,4 C 82 % 1026,7 hPa 0,0 l/m 9,4 km/h (2 Bft) S-SW 202 11,4 C 14,4 C
02.09.2012 10:01 14,8 C 82 % 1026,8 hPa 0,0 l/m 2,5 km/h (1 Bft) S-SO 157 11,8 C 14,8 C
02.09.2012 10:06 14,9 C 81 % 1026,8 hPa 0,0 l/m 7,6 km/h (2 Bft) S-SW 202 11,7 C 14,9 C
02.09.2012 10:11 15,5 C 80 % 1026,9 hPa 0,0 l/m 1,4 km/h (1 Bft) S-SW 202 12,1 C 15,5 C
02.09.2012 10:16 15,9 C 79 % 1026,9 hPa 0,0 l/m 8,3 km/h (2 Bft) W-SW 247 12,3 C 15,9 C
02.09.2012 10:21 16,4 C 77 % 1026,9 hPa 0,0 l/m 5,8 km/h (2 Bft) S 180 12,4 C 16,4 C
02.09.2012 10:26 16,9 C 76 % 1026,9 hPa 0,0 l/m 3,6 km/h (1 Bft) SW 225 12,6 C 16,9 C
02.09.2012 10:31 17,3 C 75 % 1026,9 hPa 0,0 l/m 2,5 km/h (1 Bft) S-SO 157 12,8 C 17,3 C
02.09.2012 10:36 17,8 C 73 % 1027,0 hPa 0,0 l/m 5,8 km/h (2 Bft) S-SW 202 12,9 C 17,8 C
02.09.2012 10:41 18,3 C 71 % 1026,9 hPa 0,0 l/m 9,7 km/h (2 Bft) W-SW 247 12,9 C 18,3 C
02.09.2012 10:46 18,6 C 68 % 1026,9 hPa 0,0 l/m 4,7 km/h (1 Bft) S-SW 202 12,6 C 18,6 C
02.09.2012 10:51 18,8 C 67 % 1026,9 hPa 0,0 l/m 10,1 km/h (2 Bft) S-SW 202 12,5 C 18,8 C
02.09.2012 10:56 19,1 C 66 % 1027,0 hPa 0,0 l/m 13,0 km/h (3 Bft) S-SW 202 12,6 C 19,1 C
02.09.2012 11:01 19,4 C 64 % 1027,0 hPa 0,0 l/m 2,9 km/h (1 Bft) S-SW 202 12,4 C 19,4 C
02.09.2012 11:06 19,6 C 64 % 1027,0 hPa 0,0 l/m 7,9 km/h (2 Bft) SW 225 12,6 C 19,6 C
02.09.2012 11:11 19,8 C 63 % 1027,0 hPa 0,0 l/m 7,2 km/h (2 Bft) SW 225 12,5 C 19,8 C
02.09.2012 11:16 19,8 C 63 % 1026,9 hPa 0,0 l/m 5,8 km/h (2 Bft) SO 135 12,5 C 19,8 C
02.09.2012 11:21 19,8 C 63 % 1027,0 hPa 0,0 l/m 7,9 km/h (2 Bft) SW 225 12,5 C 19,8 C
02.09.2012 11:26 19,8 C 62 % 1027,0 hPa 0,0 l/m 9,4 km/h (2 Bft) S-SO 157 12,3 C 19,8 C
02.09.2012 11:31 19,8 C 62 % 1026,9 hPa 0,0 l/m 8,6 km/h (2 Bft) S-SW 202 12,3 C 19,8 C
02.09.2012 11:36 19,8 C 62 % 1026,8 hPa 0,0 l/m 9,4 km/h (2 Bft) S 180 12,3 C 19,8 C
02.09.2012 11:41 19,7 C 61 % 1026,8 hPa 0,0 l/m 4,7 km/h (1 Bft) S-SO 157 12,0 C 19,7 C
02.09.2012 11:46 19,6 C 61 % 1026,9 hPa 0,0 l/m 9,4 km/h (2 Bft) S-SW 202 11,9 C 19,6 C
02.09.2012 11:51 19,6 C 61 % 1026,8 hPa 0,0 l/m 7,6 km/h (2 Bft) S-SW 202 11,9 C 19,6 C
02.09.2012 11:56 19,6 C 61 % 1026,9 hPa 0,0 l/m 8,3 km/h (2 Bft) S 180 11,9 C 19,6 C
02.09.2012 12:01 19,6 C 60 % 1026,8 hPa 0,0 l/m 5,4 km/h (1 Bft) S 180 11,6 C 19,6 C
02.09.2012 12:06 19,8 C 60 % 1026,7 hPa 0,0 l/m 6,1 km/h (2 Bft) S-SW 202 11,8 C 19,8 C
02.09.2012 12:11 19,9 C 60 % 1026,7 hPa 0,0 l/m 3,6 km/h (1 Bft) SO 135 11,9 C 19,9 C
02.09.2012 12:16 20,0 C 58 % 1026,6 hPa 0,0 l/m 7,6 km/h (2 Bft) W-SW 247 11,5 C 20,0 C
02.09.2012 12:21 20,1 C 57 % 1026,5 hPa 0,0 l/m 6,5 km/h (2 Bft) S-SW 202 11,3 C 20,1 C
02.09.2012 12:26 20,3 C 55 % 1026,6 hPa 0,0 l/m 13,3 km/h (3 Bft) S-SW 202 11,0 C 20,3 C
02.09.2012 12:31 20,3 C 54 % 1026,5 hPa 0,0 l/m 9,4 km/h (2 Bft) S-SW 202 10,7 C 20,3 C
02.09.2012 12:36 20,4 C 54 % 1026,5 hPa 0,0 l/m 8,6 km/h (2 Bft) S 180 10,8 C 20,4 C
02.09.2012 12:41 20,4 C 53 % 1026,4 hPa 0,0 l/m 4,0 km/h (1 Bft) S-SW 202 10,5 C 20,4 C
02.09.2012 12:46 20,6 C 53 % 1026,3 hPa 0,0 l/m 12,6 km/h (3 Bft) S-SO 157 10,7 C 20,6 C
02.09.2012 12:51 20,7 C 53 % 1026,3 hPa 0,0 l/m 10,1 km/h (2 Bft) W-SW 247 10,8 C 20,7 C
02.09.2012 12:56 20,6 C 52 % 1026,2 hPa 0,0 l/m 5,8 km/h (2 Bft) SO 135 10,4 C 20,6 C
02.09.2012 13:01 20,6 C 52 % 1026,2 hPa 0,0 l/m 8,6 km/h (2 Bft) W-SW 247 10,4 C 20,6 C
02.09.2012 13:06 20,8 C 52 % 1026,3 hPa 0,0 l/m 10,4 km/h (2 Bft) S 180 10,6 C 20,8 C
02.09.2012 13:11 20,8 C 51 % 1026,2 hPa 0,0 l/m 14,8 km/h (3 Bft) S 180 10,3 C 20,8 C
02.09.2012 13:16 20,8 C 51 % 1026,2 hPa 0,0 l/m 7,2 km/h (2 Bft) S-SW 202 10,3 C 20,8 C
02.09.2012 13:21 20,7 C 51 % 1026,3 hPa 0,0 l/m 9,7 km/h (2 Bft) W-SW 247 10,2 C 20,7 C
02.09.2012 13:26 20,6 C 51 % 1026,3 hPa 0,0 l/m 4,0 km/h (1 Bft) S 180 10,1 C 20,6 C
02.09.2012 13:31 20,4 C 51 % 1026,3 hPa 0,0 l/m 19,8 km/h (3 Bft) S 180 9,9 C 20,4 C
02.09.2012 13:36 20,4 C 51 % 1026,2 hPa 0,0 l/m 5,8 km/h (2 Bft) SW 225 9,9 C 20,4 C
02.09.2012 13:41 20,4 C 50 % 1026,2 hPa 0,0 l/m 4,3 km/h (1 Bft) S-SW 202 9,6 C 20,4 C
02.09.2012 13:46 20,5 C 51 % 1026,1 hPa 0,0 l/m 6,8 km/h (2 Bft) SW 225 10,0 C 20,5 C
02.09.2012 13:51 20,6 C 51 % 1026,1 hPa 0,0 l/m 6,5 km/h (2 Bft) W 270 10,1 C 20,6 C
02.09.2012 13:56 20,8 C 51 % 1026,0 hPa 0,0 l/m 2,5 km/h (1 Bft) S-SW 202 10,3 C 20,8 C
02.09.2012 14:01 20,9 C 51 % 1026,0 hPa 0,0 l/m 10,4 km/h (2 Bft) S 180 10,4 C 20,9 C
02.09.2012 14:06 20,9 C 51 % 1025,9 hPa 0,0 l/m 11,2 km/h (2 Bft) SW 225 10,4 C 20,9 C
02.09.2012 14:11 20,8 C 51 % 1025,8 hPa 0,0 l/m 5,4 km/h (1 Bft) S-SW 202 10,3 C 20,8 C
02.09.2012 14:16 20,9 C 51 % 1025,7 hPa 0,0 l/m 5,8 km/h (2 Bft) W 270 10,4 C 20,9 C
02.09.2012 14:21 21,0 C 50 % 1025,7 hPa 0,0 l/m 6,1 km/h (2 Bft) S-SO 157 10,2 C 21,0 C
02.09.2012 14:26 21,3 C 50 % 1025,6 hPa 0,0 l/m 4,0 km/h (1 Bft) S-SW 202 10,4 C 21,3 C
02.09.2012 14:31 21,6 C 50 % 1025,5 hPa 0,0 l/m 6,1 km/h (2 Bft) S 180 10,7 C 21,6 C
02.09.2012 14:36 21,9 C 49 % 1025,6 hPa 0,0 l/m 3,2 km/h (1 Bft) NW 315 10,7 C 21,9 C
02.09.2012 14:41 22,1 C 48 % 1025,6 hPa 0,0 l/m 8,6 km/h (2 Bft) S 180 10,6 C 22,1 C
02.09.2012 14:46 22,3 C 48 % 1025,4 hPa 0,0 l/m 14,8 km/h (3 Bft) S-SW 202 10,8 C 22,3 C
02.09.2012 14:51 22,3 C 47 % 1025,4 hPa 0,0 l/m 10,1 km/h (2 Bft) S-SO 157 10,4 C 22,3 C
02.09.2012 14:56 22,4 C 47 % 1025,3 hPa 0,0 l/m 4,0 km/h (1 Bft) W-SW 247 10,5 C 22,4 C
02.09.2012 15:01 22,6 C 48 % 1025,2 hPa 0,0 l/m 10,1 km/h (2 Bft) W-SW 247 11,0 C 22,6 C
02.09.2012 15:06 22,5 C 47 % 1025,3 hPa 0,0 l/m 3,2 km/h (1 Bft) S-SO 157 10,6 C 22,5 C
02.09.2012 15:11 22,3 C 47 % 1025,3 hPa 0,0 l/m 7,6 km/h (2 Bft) W 270 10,4 C 22,3 C
02.09.2012 15:16 22,3 C 47 % 1025,3 hPa 0,0 l/m 5,4 km/h (1 Bft) W-SW 247 10,4 C 22,3 C
02.09.2012 15:21 22,4 C 48 % 1025,2 hPa 0,0 l/m 5,8 km/h (2 Bft) W-SW 247 10,8 C 22,4 C
02.09.2012 15:26 22,4 C 48 % 1025,2 hPa 0,0 l/m 7,2 km/h (2 Bft) S-SW 202 10,8 C 22,4 C
02.09.2012 15:31 22,6 C 47 % 1025,1 hPa 0,0 l/m 7,9 km/h (2 Bft) W-SW 247 10,7 C 22,6 C
02.09.2012 15:36 22,6 C 47 % 1024,9 hPa 0,0 l/m 11,2 km/h (2 Bft) W-SW 247 10,7 C 22,6 C
02.09.2012 15:41 22,6 C 47 % 1024,9 hPa 0,0 l/m 0,0 km/h (0 Bft) W 270 10,7 C 22,6 C
02.09.2012 15:46 22,7 C 47 % 1024,8 hPa 0,0 l/m 6,5 km/h (2 Bft) W-SW 247 10,8 C 22,7 C
02.09.2012 15:51 22,8 C 46 % 1024,9 hPa 0,0 l/m 6,5 km/h (2 Bft) W-SW 247 10,6 C 22,8 C
02.09.2012 15:56 22,8 C 46 % 1024,9 hPa 0,0 l/m 14,8 km/h (3 Bft) W-SW 247 10,6 C 22,8 C
02.09.2012 16:01 22,5 C 46 % 1024,8 hPa 0,0 l/m 7,9 km/h (2 Bft) W-SW 247 10,3 C 22,5 C
02.09.2012 16:06 22,4 C 47 % 1024,7 hPa 0,0 l/m 9,4 km/h (2 Bft) SW 225 10,5 C 22,4 C
02.09.2012 16:11 22,4 C 48 % 1024,7 hPa 0,0 l/m 9,7 km/h (2 Bft) W-SW 247 10,8 C 22,4 C
02.09.2012 16:16 22,4 C 48 % 1024,6 hPa 0,0 l/m 5,8 km/h (2 Bft) W-SW 247 10,8 C 22,4 C
02.09.2012 16:21 22,6 C 48 % 1024,6 hPa 0,0 l/m 9,4 km/h (2 Bft) W-SW 247 11,0 C 22,6 C
02.09.2012 16:26 22,9 C 48 % 1024,6 hPa 0,0 l/m 13,3 km/h (3 Bft) SW 225 11,3 C 22,9 C
02.09.2012 16:31 22,9 C 48 % 1024,6 hPa 0,0 l/m 7,2 km/h (2 Bft) W-SW 247 11,3 C 22,9 C
02.09.2012 16:36 23,0 C 47 % 1024,5 hPa 0,0 l/m 3,6 km/h (1 Bft) SW 225 11,1 C 23,0 C
02.09.2012 16:41 22,9 C 47 % 1024,4 hPa 0,0 l/m 0,0 km/h (0 Bft) W-NW 292 11,0 C 22,9 C
02.09.2012 16:46 22,9 C 47 % 1024,4 hPa 0,0 l/m 4,0 km/h (1 Bft) W 270 11,0 C 22,9 C
02.09.2012 16:51 22,8 C 47 % 1024,4 hPa 0,0 l/m 5,4 km/h (1 Bft) SW 225 10,9 C 22,8 C
02.09.2012 16:56 22,8 C 47 % 1024,4 hPa 0,0 l/m 4,7 km/h (1 Bft) W-SW 247 10,9 C 22,8 C
02.09.2012 17:01 22,8 C 48 % 1024,3 hPa 0,0 l/m 13,3 km/h (3 Bft) W-SW 247 11,2 C 22,8 C
02.09.2012 17:06 22,8 C 48 % 1024,4 hPa 0,0 l/m 1,8 km/h (1 Bft) W 270 11,2 C 22,8 C
02.09.2012 17:11 22,9 C 48 % 1024,4 hPa 0,0 l/m 2,2 km/h (1 Bft) S-SW 202 11,3 C 22,9 C
02.09.2012 17:16 23,0 C 48 % 1024,2 hPa 0,0 l/m 9,0 km/h (2 Bft) S 180 11,4 C 23,0 C
02.09.2012 17:21 23,0 C 47 % 1024,3 hPa 0,0 l/m 2,2 km/h (1 Bft) W-NW 292 11,1 C 23,0 C
02.09.2012 17:26 22,9 C 47 % 1024,2 hPa 0,0 l/m 9,7 km/h (2 Bft) W-SW 247 11,0 C 22,9 C
02.09.2012 17:31 22,9 C 47 % 1024,1 hPa 0,0 l/m 6,1 km/h (2 Bft) W-SW 247 11,0 C 22,9 C
02.09.2012 17:36 22,8 C 47 % 1024,1 hPa 0,0 l/m 6,1 km/h (2 Bft) W-SW 247 10,9 C 22,8 C
02.09.2012 17:41 22,6 C 47 % 1024,1 hPa 0,0 l/m 3,6 km/h (1 Bft) W-SW 247 10,7 C 22,6 C
02.09.2012 17:46 22,6 C 47 % 1024,1 hPa 0,0 l/m 8,3 km/h (2 Bft) W-SW 247 10,7 C 22,6 C
02.09.2012 17:51 22,5 C 48 % 1024,0 hPa 0,0 l/m 2,5 km/h (1 Bft) W 270 10,9 C 22,5 C
02.09.2012 17:56 22,4 C 48 % 1024,0 hPa 0,0 l/m 8,6 km/h (2 Bft) W-SW 247 10,8 C 22,4 C
02.09.2012 18:01 22,4 C 47 % 1024,1 hPa 0,0 l/m 11,2 km/h (2 Bft) W 270 10,5 C 22,4 C
02.09.2012 18:06 22,3 C 47 % 1024,0 hPa 0,0 l/m 9,0 km/h (2 Bft) W 270 10,4 C 22,3 C
02.09.2012 18:11 22,1 C 47 % 1024,0 hPa 0,0 l/m 10,4 km/h (2 Bft) W-SW 247 10,3 C 22,1 C
02.09.2012 18:16 22,1 C 47 % 1024,0 hPa 0,0 l/m 8,3 km/h (2 Bft) W 270 10,3 C 22,1 C
02.09.2012 18:21 22,1 C 47 % 1024,0 hPa 0,0 l/m 1,8 km/h (1 Bft) W-SW 247 10,3 C 22,1 C
02.09.2012 18:26 22,1 C 48 % 1024,0 hPa 0,0 l/m 6,8 km/h (2 Bft) S-SW 202 10,6 C 22,1 C
02.09.2012 18:31 21,9 C 48 % 1024,0 hPa 0,0 l/m 7,2 km/h (2 Bft) SW 225 10,4 C 21,9 C
02.09.2012 18:36 21,9 C 48 % 1023,9 hPa 0,0 l/m 4,3 km/h (1 Bft) SW 225 10,4 C 21,9 C
02.09.2012 18:41 21,8 C 49 % 1023,8 hPa 0,0 l/m 4,7 km/h (1 Bft) SW 225 10,6 C 21,8 C
02.09.2012 18:46 21,7 C 49 % 1023,9 hPa 0,0 l/m 4,7 km/h (1 Bft) SW 225 10,5 C 21,7 C
02.09.2012 18:51 21,6 C 50 % 1023,9 hPa 0,0 l/m 3,2 km/h (1 Bft) S-SW 202 10,7 C 21,6 C
02.09.2012 18:56 21,5 C 50 % 1023,9 hPa 0,0 l/m 8,6 km/h (2 Bft) S 180 10,6 C 21,5 C
02.09.2012 19:01 21,5 C 50 % 1024,0 hPa 0,0 l/m 2,9 km/h (1 Bft) S-SW 202 10,6 C 21,5 C
02.09.2012 19:06 21,5 C 50 % 1024,0 hPa 0,0 l/m 2,5 km/h (1 Bft) SW 225 10,6 C 21,5 C
02.09.2012 19:11 21,8 C 50 % 1024,0 hPa 0,0 l/m 4,7 km/h (1 Bft) S-SW 202 10,9 C 21,8 C
02.09.2012 19:16 22,2 C 50 % 1024,0 hPa 0,0 l/m 3,6 km/h (1 Bft) S-SW 202 11,3 C 22,2 C
02.09.2012 19:21 22,2 C 49 % 1024,1 hPa 0,0 l/m 4,0 km/h (1 Bft) S-SW 202 11,0 C 22,2 C
02.09.2012 19:26 21,8 C 50 % 1024,1 hPa 0,0 l/m 1,4 km/h (1 Bft) S 180 10,9 C 21,8 C
02.09.2012 19:31 21,2 C 51 % 1024,0 hPa 0,0 l/m 1,4 km/h (1 Bft) S 180 10,7 C 21,2 C
02.09.2012 19:36 20,8 C 52 % 1024,1 hPa 0,0 l/m 1,4 km/h (1 Bft) S 180 10,6 C 20,8 C
02.09.2012 19:41 20,4 C 52 % 1023,9 hPa 0,0 l/m 0,0 km/h (0 Bft) S 180 10,2 C 20,4 C
02.09.2012 19:46 20,2 C 53 % 1023,9 hPa 0,0 l/m 0,0 km/h (0 Bft) S 180 10,3 C 20,2 C
02.09.2012 19:51 19,9 C 54 % 1023,9 hPa 0,0 l/m 0,0 km/h (0 Bft) S 180 10,3 C 19,9 C
02.09.2012 19:56 19,6 C 54 % 1023,9 hPa 0,0 l/m 1,4 km/h (1 Bft) S 180 10,0 C 19,6 C
02.09.2012 20:01 19,4 C 55 % 1023,9 hPa 0,0 l/m 0,0 km/h (0 Bft) S 180 10,1 C 19,4 C
02.09.2012 20:06 19,1 C 56 % 1023,9 hPa 0,0 l/m 2,5 km/h (1 Bft) S 180 10,1 C 19,1 C
02.09.2012 20:11 18,9 C 57 % 1023,9 hPa 0,0 l/m 0,0 km/h (0 Bft) S 180 10,2 C 18,9 C
02.09.2012 20:16 18,6 C 58 % 1023,9 hPa 0,0 l/m 0,0 km/h (0 Bft) S 180 10,2 C 18,6 C
02.09.2012 20:21 18,4 C 58 % 1024,1 hPa 0,0 l/m 0,0 km/h (0 Bft) S 180 10,0 C 18,4 C
02.09.2012 20:26 18,2 C 59 % 1024,1 hPa 0,0 l/m 0,0 km/h (0 Bft) S 180 10,1 C 18,2 C
02.09.2012 20:31 17,9 C 60 % 1024,1 hPa 0,0 l/m 0,0 km/h (0 Bft) S 180 10,0 C 17,9 C
02.09.2012 20:36 17,8 C 60 % 1024,2 hPa 0,0 l/m 0,0 km/h (0 Bft) S 180 9,9 C 17,8 C
02.09.2012 20:41 17,5 C 61 % 1024,3 hPa 0,0 l/m 0,0 km/h (0 Bft) S 180 9,9 C 17,5 C
02.09.2012 20:46 17,3 C 62 % 1024,3 hPa 0,0 l/m 0,0 km/h (0 Bft) S 180 9,9 C 17,3 C
02.09.2012 20:51 17,2 C 63 % 1024,4 hPa 0,0 l/m 0,0 km/h (0 Bft) S 180 10,1 C 17,2 C
02.09.2012 20:56 16,9 C 63 % 1024,4 hPa 0,0 l/m 0,0 km/h (0 Bft) S 180 9,8 C 16,9 C
02.09.2012 21:01 16,8 C 64 % 1024,4 hPa 0,0 l/m 0,0 km/h (0 Bft) S 180 10,0 C 16,8 C
02.09.2012 21:06 16,6 C 64 % 1024,4 hPa 0,0 l/m 0,0 km/h (0 Bft) S 180 9,8 C 16,6 C
02.09.2012 21:11 16,4 C 65 % 1024,4 hPa 0,0 l/m 0,0 km/h (0 Bft) S 180 9,8 C 16,4 C
02.09.2012 21:16 16,4 C 66 % 1024,5 hPa 0,0 l/m 0,0 km/h (0 Bft) S 180 10,0 C 16,4 C
02.09.2012 21:21 16,2 C 67 % 1024,5 hPa 0,0 l/m 0,0 km/h (0 Bft) S 180 10,1 C 16,2 C
02.09.2012 21:26 16,1 C 67 % 1024,5 hPa 0,0 l/m 0,0 km/h (0 Bft) S 180 10,0 C 16,1 C
02.09.2012 21:31 16,0 C 67 % 1024,5 hPa 0,0 l/m 0,0 km/h (0 Bft) S 180 9,9 C 16,0 C
02.09.2012 21:36 15,9 C 68 % 1024,6 hPa 0,0 l/m 0,0 km/h (0 Bft) S 180 10,0 C 15,9 C
02.09.2012 21:41 15,8 C 69 % 1024,7 hPa 0,0 l/m 0,0 km/h (0 Bft) S 180 10,1 C 15,8 C
02.09.2012 21:46 15,6 C 69 % 1024,6 hPa 0,0 l/m 0,0 km/h (0 Bft) S 180 9,9 C 15,6 C
02.09.2012 21:51 15,5 C 69 % 1024,5 hPa 0,0 l/m 0,0 km/h (0 Bft) S 180 9,8 C 15,5 C
02.09.2012 21:56 15,4 C 69 % 1024,6 hPa 0,0 l/m 0,0 km/h (0 Bft) S 180 9,7 C 15,4 C
02.09.2012 22:01 15,4 C 70 % 1024,6 hPa 0,0 l/m 0,0 km/h (0 Bft) S 180 10,0 C 15,4 C
02.09.2012 22:06 15,3 C 71 % 1024,7 hPa 0,0 l/m 0,0 km/h (0 Bft) S 180 10,1 C 15,3 C
02.09.2012 22:11 15,2 C 72 % 1024,6 hPa 0,0 l/m 0,0 km/h (0 Bft) S 180 10,2 C 15,2 C
02.09.2012 22:16 15,1 C 73 % 1024,7 hPa 0,0 l/m 0,0 km/h (0 Bft) S 180 10,3 C 15,1 C
02.09.2012 22:21 14,9 C 73 % 1024,8 hPa 0,0 l/m 0,0 km/h (0 Bft) S 180 10,1 C 14,9 C
02.09.2012 22:26 14,9 C 74 % 1024,8 hPa 0,0 l/m 0,0 km/h (0 Bft) S 180 10,3 C 14,9 C
02.09.2012 22:31 14,9 C 74 % 1024,9 hPa 0,0 l/m 0,0 km/h (0 Bft) S 180 10,3 C 14,9 C
02.09.2012 22:36 14,9 C 75 % 1024,8 hPa 0,0 l/m 0,0 km/h (0 Bft) S 180 10,5 C 14,9 C
02.09.2012 22:41 14,9 C 75 % 1024,7 hPa 0,0 l/m 0,0 km/h (0 Bft) S 180 10,5 C 14,9 C
02.09.2012 22:46 14,8 C 75 % 1024,6 hPa 0,0 l/m 0,0 km/h (0 Bft) S 180 10,4 C 14,8 C
02.09.2012 22:51 14,7 C 75 % 1024,7 hPa 0,0 l/m 1,4 km/h (1 Bft) S 180 10,3 C 14,7 C
02.09.2012 22:56 14,6 C 76 % 1024,6 hPa 0,0 l/m 1,8 km/h (1 Bft) S 180 10,4 C 14,6 C
02.09.2012 23:01 14,7 C 77 % 1024,6 hPa 0,0 l/m 1,8 km/h (1 Bft) S 180 10,7 C 14,7 C
02.09.2012 23:06 14,7 C 77 % 1024,6 hPa 0,0 l/m 0,0 km/h (0 Bft) S 180 10,7 C 14,7 C
02.09.2012 23:11 14,8 C 77 % 1024,6 hPa 0,0 l/m 2,2 km/h (1 Bft) S 180 10,8 C 14,8 C
02.09.2012 23:16 14,8 C 77 % 1024,7 hPa 0,0 l/m 1,4 km/h (1 Bft) S 180 10,8 C 14,8 C
02.09.2012 23:21 14,8 C 77 % 1024,7 hPa 0,0 l/m 2,2 km/h (1 Bft) S 180 10,8 C 14,8 C
02.09.2012 23:26 14,7 C 77 % 1024,7 hPa 0,0 l/m 0,0 km/h (0 Bft) S 180 10,7 C 14,7 C
02.09.2012 23:31 14,7 C 77 % 1024,7 hPa 0,0 l/m 0,0 km/h (0 Bft) S 180 10,7 C 14,7 C
02.09.2012 23:36 14,7 C 76 % 1024,7 hPa 0,0 l/m 0,0 km/h (0 Bft) S 180 10,5 C 14,7 C
02.09.2012 23:41 14,6 C 77 % 1024,8 hPa 0,0 l/m 0,0 km/h (0 Bft) S 180 10,6 C 14,6 C
02.09.2012 23:46 14,6 C 77 % 1024,8 hPa 0,0 l/m 0,0 km/h (0 Bft) S 180 10,6 C 14,6 C
02.09.2012 23:51 14,6 C 77 % 1024,8 hPa 0,0 l/m 0,0 km/h (0 Bft) S 180 10,6 C 14,6 C
02.09.2012 23:56 14,6 C 77 % 1024,7 hPa 0,0 l/m 0,0 km/h (0 Bft) S 180 10,6 C 14,6 C
_ Min-Zeit 06:46 15:51 18:41 - 00:01 - - 06:46 06:46
Minimum _ 8,4 C 46 % 1023,8 hPa - 0,0 km/h (0 Bft) - - 6,5 C 8,4 C
_ Max-Zeit 16:36 05:26 00:51 00:01 13:31 - - 10:41 16:36
Maximum _ 23,0 C 88 % 1027,2 hPa 0,0 l/m 19,8 km/h
S (3 Bft)
- - 12,9 C 23,0 C
Durchschnitt _ 15,6 C 69 % 1025,8 hPa #0,0 l/m 3,2 km/h (1 Bft) S-SW - 9,6 C 15,6 C
(c) by David Heller